sensor_id;sensor_type;location;lat;lon;timestamp;pressure;altitude;pressure_sealevel;temperature;humidity
9281;BME280;4679;47.966;7.958;2023-03-20T07:00:57;97571.03;;;7.92;87.82
9281;BME280;4679;47.966;7.958;2023-03-20T07:02:59;97569.19;;;7.92;87.15
9281;BME280;4679;47.966;7.958;2023-03-20T07:05:00;97577.75;;;7.88;87.03
9281;BME280;4679;47.966;7.958;2023-03-20T07:07:02;97576.72;;;7.89;87.59
9281;BME280;4679;47.966;7.958;2023-03-20T07:09:04;97576.31;;;7.92;87.67
9281;BME280;4679;47.966;7.958;2023-03-20T07:11:07;97584.59;;;7.95;87.31
9281;BME280;4679;47.966;7.958;2023-03-20T07:13:09;97583.13;;;7.99;87.08
9281;BME280;4679;47.966;7.958;2023-03-20T07:15:11;97584.94;;;8.05;87.38
9281;BME280;4679;47.966;7.958;2023-03-20T07:17:14;97579.44;;;8.07;87.40
9281;BME280;4679;47.966;7.958;2023-03-20T07:19:16;97579.88;;;8.04;86.85
9281;BME280;4679;47.966;7.958;2023-03-20T07:21:20;97583.75;;;8.01;86.94
9281;BME280;4679;47.966;7.958;2023-03-20T07:23:22;97588.00;;;8.02;87.88
9281;BME280;4679;47.966;7.958;2023-03-20T07:25:24;97588.00;;;8.02;87.05
9281;BME280;4679;47.966;7.958;2023-03-20T07:27:25;97595.50;;;8.05;87.93
9281;BME280;4679;47.966;7.958;2023-03-20T07:29:27;97593.25;;;8.09;87.21
9281;BME280;4679;47.966;7.958;2023-03-20T07:31:29;97600.72;;;8.12;87.25
9281;BME280;4679;47.966;7.958;2023-03-20T07:33:33;97599.28;;;8.16;87.73
9281;BME280;4679;47.966;7.958;2023-03-20T07:35:34;97611.03;;;8.20;87.46
9281;BME280;4679;47.966;7.958;2023-03-20T07:37:36;97614.06;;;8.24;87.17
9281;BME280;4679;47.966;7.958;2023-03-20T07:39:38;97610.63;;;8.23;87.03
9281;BME280;4679;47.966;7.958;2023-03-20T07:41:40;97623.06;;;8.16;87.33
9281;BME280;4679;47.966;7.958;2023-03-20T07:43:41;97623.91;;;8.10;87.83
9281;BME280;4679;47.966;7.958;2023-03-20T07:45:43;97624.16;;;8.08;87.23
9281;BME280;4679;47.966;7.958;2023-03-20T07:47:45;97623.34;;;8.08;87.52
9281;BME280;4679;47.966;7.958;2023-03-20T07:49:49;97623.91;;;8.10;87.55
9281;BME280;4679;47.966;7.958;2023-03-20T07:51:51;97624.09;;;8.15;87.70
9281;BME280;4679;47.966;7.958;2023-03-20T07:53:53;97619.56;;;8.22;87.35
9281;BME280;4679;47.966;7.958;2023-03-20T07:55:55;97624.56;;;8.30;87.56
9281;BME280;4679;47.966;7.958;2023-03-20T07:57:57;97621.91;;;8.37;87.49
9281;BME280;4679;47.966;7.958;2023-03-20T07:59:58;97621.25;;;8.41;87.52
9281;BME280;4679;47.966;7.958;2023-03-20T08:02:00;97624.47;;;8.43;87.44
9281;BME280;4679;47.966;7.958;2023-03-20T08:04:01;97623.03;;;8.48;87.23
9281;BME280;4679;47.966;7.958;2023-03-20T08:06:05;97613.44;;;8.53;87.38
9281;BME280;4679;47.966;7.958;2023-03-20T08:08:08;97612.91;;;8.63;87.25
9281;BME280;4679;47.966;7.958;2023-03-20T08:10:10;97605.97;;;8.68;87.24
9281;BME280;4679;47.966;7.958;2023-03-20T08:12:12;97606.09;;;8.73;87.01
9281;BME280;4679;47.966;7.958;2023-03-20T08:14:14;97611.16;;;8.75;86.83
9281;BME280;4679;47.966;7.958;2023-03-20T08:16:15;97608.94;;;8.72;87.17
9281;BME280;4679;47.966;7.958;2023-03-20T08:18:17;97610.78;;;8.71;86.85
9281;BME280;4679;47.966;7.958;2023-03-20T08:20:21;97611.09;;;8.63;86.94
9281;BME280;4679;47.966;7.958;2023-03-20T08:22:24;97614.03;;;8.55;87.33
9281;BME280;4679;47.966;7.958;2023-03-20T08:24:26;97614.44;;;8.52;87.09
9281;BME280;4679;47.966;7.958;2023-03-20T08:26:28;97619.06;;;8.57;87.02
9281;BME280;4679;47.966;7.958;2023-03-20T08:28:29;97616.38;;;8.63;86.82
9281;BME280;4679;47.966;7.958;2023-03-20T08:30:31;97610.13;;;8.76;86.75
9281;BME280;4679;47.966;7.958;2023-03-20T08:32:33;97617.41;;;8.80;86.69
9281;BME280;4679;47.966;7.958;2023-03-20T08:34:34;97616.53;;;8.87;86.59
9281;BME280;4679;47.966;7.958;2023-03-20T08:36:36;97612.19;;;8.92;86.61
9281;BME280;4679;47.966;7.958;2023-03-20T08:38:40;97614.56;;;9.00;86.59
9281;BME280;4679;47.966;7.958;2023-03-20T08:40:42;97605.13;;;9.04;86.53
9281;BME280;4679;47.966;7.958;2023-03-20T08:42:44;97609.63;;;9.04;86.11
9281;BME280;4679;47.966;7.958;2023-03-20T08:44:46;97609.41;;;9.05;86.42
9281;BME280;4679;47.966;7.958;2023-03-20T08:46:48;97611.16;;;9.11;86.30
9281;BME280;4679;47.966;7.958;2023-03-20T08:48:50;97615.44;;;9.12;86.30
9281;BME280;4679;47.966;7.958;2023-03-20T08:50:52;97604.41;;;9.15;85.83
9281;BME280;4679;47.966;7.958;2023-03-20T08:52:53;97605.28;;;9.28;86.06
9281;BME280;4679;47.966;7.958;2023-03-20T08:54:56;97603.84;;;9.43;86.12
9281;BME280;4679;47.966;7.958;2023-03-20T08:56:58;97600.56;;;9.60;85.99
9281;BME280;4679;47.966;7.958;2023-03-20T08:59:00;97596.34;;;9.70;85.63
9281;BME280;4679;47.966;7.958;2023-03-20T09:01:05;97589.41;;;9.69;85.27
9281;BME280;4679;47.966;7.958;2023-03-20T09:03:10;97602.75;;;9.63;85.26
9281;BME280;4679;47.966;7.958;2023-03-20T09:05:14;97602.53;;;9.64;85.53
9281;BME280;4679;47.966;7.958;2023-03-20T09:07:16;97599.56;;;9.72;84.61
9281;BME280;4679;47.966;7.958;2023-03-20T09:09:18;97607.69;;;9.89;84.93
9281;BME280;4679;47.966;7.958;2023-03-20T09:11:22;97603.56;;;10.05;84.38
9281;BME280;4679;47.966;7.958;2023-03-20T09:13:24;97599.25;;;10.22;83.50
9281;BME280;4679;47.966;7.958;2023-03-20T09:15:26;97598.69;;;10.32;83.91
9281;BME280;4679;47.966;7.958;2023-03-20T09:17:27;97605.97;;;10.36;83.77
9281;BME280;4679;47.966;7.958;2023-03-20T09:19:30;97595.91;;;10.50;83.16
9281;BME280;4679;47.966;7.958;2023-03-20T09:21:32;97594.66;;;10.52;83.11
9281;BME280;4679;47.966;7.958;2023-03-20T09:23:34;97603.06;;;10.61;83.84
9281;BME280;4679;47.966;7.958;2023-03-20T09:25:36;97607.91;;;10.64;83.45
9281;BME280;4679;47.966;7.958;2023-03-20T09:27:39;97613.91;;;10.48;82.88
9281;BME280;4679;47.966;7.958;2023-03-20T09:29:41;97611.59;;;10.40;83.24
9281;BME280;4679;47.966;7.958;2023-03-20T09:31:43;97614.00;;;10.41;83.07
9281;BME280;4679;47.966;7.958;2023-03-20T09:33:45;97617.81;;;10.34;83.01
9281;BME280;4679;47.966;7.958;2023-03-20T09:35:46;97619.66;;;10.33;82.59
9281;BME280;4679;47.966;7.958;2023-03-20T09:37:48;97604.91;;;10.49;83.42
9281;BME280;4679;47.966;7.958;2023-03-20T09:39:49;97612.50;;;10.57;82.54
9281;BME280;4679;47.966;7.958;2023-03-20T09:41:51;97617.38;;;10.60;82.93
9281;BME280;4679;47.966;7.958;2023-03-20T09:44:03;97617.69;;;10.40;82.49
9281;BME280;4679;47.966;7.958;2023-03-20T09:46:14;97623.81;;;10.41;81.83
9281;BME280;4679;47.966;7.958;2023-03-20T09:48:27;97627.28;;;10.41;82.31
9281;BME280;4679;47.966;7.958;2023-03-20T09:50:35;97622.09;;;10.46;82.02
9281;BME280;4679;47.966;7.958;2023-03-20T09:52:42;97618.31;;;10.54;82.23
9281;BME280;4679;47.966;7.958;2023-03-20T09:54:48;97616.09;;;10.39;82.17
9281;BME280;4679;47.966;7.958;2023-03-20T09:56:53;97610.44;;;10.47;82.46
9281;BME280;4679;47.966;7.958;2023-03-20T09:58:59;97611.59;;;10.63;82.16
9281;BME280;4679;47.966;7.958;2023-03-20T10:01:04;97612.84;;;10.72;80.74
9281;BME280;4679;47.966;7.958;2023-03-20T10:03:16;97619.44;;;10.81;81.31
9281;BME280;4679;47.966;7.958;2023-03-20T10:05:22;97619.53;;;10.86;80.89
9281;BME280;4679;47.966;7.958;2023-03-20T10:07:24;97614.00;;;10.88;80.86
9281;BME280;4679;47.966;7.958;2023-03-20T10:09:27;97604.41;;;10.87;80.96
9281;BME280;4679;47.966;7.958;2023-03-20T10:14:09;97609.72;;;10.87;80.38
9281;BME280;4679;47.966;7.958;2023-03-20T10:16:25;97613.41;;;10.98;80.15
9281;BME280;4679;47.966;7.958;2023-03-20T10:18:34;97610.84;;;11.03;80.12
9281;BME280;4679;47.966;7.958;2023-03-20T10:20:41;97604.72;;;11.02;80.45
9281;BME280;4679;47.966;7.958;2023-03-20T10:22:46;97612.59;;;11.09;79.98
9281;BME280;4679;47.966;7.958;2023-03-20T10:24:53;97607.03;;;11.10;79.27
9281;BME280;4679;47.966;7.958;2023-03-20T10:27:00;97609.78;;;11.15;79.96
9281;BME280;4679;47.966;7.958;2023-03-20T10:29:12;97616.59;;;11.23;79.21
9281;BME280;4679;47.966;7.958;2023-03-20T10:31:27;97616.94;;;11.26;78.48
9281;BME280;4679;47.966;7.958;2023-03-20T10:33:39;97619.94;;;11.18;78.93
9281;BME280;4679;47.966;7.958;2023-03-20T10:35:50;97619.03;;;11.24;78.52
9281;BME280;4679;47.966;7.958;2023-03-20T10:38:06;97623.19;;;11.20;77.87
9281;BME280;4679;47.966;7.958;2023-03-20T10:40:23;97619.97;;;11.07;78.42
9281;BME280;4679;47.966;7.958;2023-03-20T10:42:28;97629.31;;;11.09;78.99
9281;BME280;4679;47.966;7.958;2023-03-20T10:44:35;97630.34;;;11.20;77.39
9281;BME280;4679;47.966;7.958;2023-03-20T10:46:40;97628.06;;;11.12;77.97
9281;BME280;4679;47.966;7.958;2023-03-20T10:48:45;97633.81;;;11.20;77.85
9281;BME280;4679;47.966;7.958;2023-03-20T10:50:51;97627.81;;;11.13;77.90
9281;BME280;4679;47.966;7.958;2023-03-20T10:52:55;97642.16;;;11.12;76.80
9281;BME280;4679;47.966;7.958;2023-03-20T10:54:59;97629.31;;;11.09;77.00
9281;BME280;4679;47.966;7.958;2023-03-20T10:57:03;97631.97;;;11.09;77.84
9281;BME280;4679;47.966;7.958;2023-03-20T10:59:09;97629.56;;;11.08;76.77
9281;BME280;4679;47.966;7.958;2023-03-20T11:01:14;97635.00;;;11.13;76.86
9281;BME280;4679;47.966;7.958;2023-03-20T11:03:20;97628.38;;;11.15;76.62
9281;BME280;4679;47.966;7.958;2023-03-20T11:05:27;97626.63;;;11.21;76.47
9281;BME280;4679;47.966;7.958;2023-03-20T11:07:32;97628.03;;;11.23;76.23
9281;BME280;4679;47.966;7.958;2023-03-20T11:09:34;97628.94;;;11.29;76.39
9281;BME280;4679;47.966;7.958;2023-03-20T11:11:37;97617.69;;;11.39;74.81
9281;BME280;4679;47.966;7.958;2023-03-20T11:13:43;97622.84;;;11.57;74.79
9281;BME280;4679;47.966;7.958;2023-03-20T11:15:45;97615.53;;;11.64;74.66
9281;BME280;4679;47.966;7.958;2023-03-20T11:17:53;97620.00;;;11.75;74.20
9281;BME280;4679;47.966;7.958;2023-03-20T11:20:01;97612.38;;;11.95;74.46
9281;BME280;4679;47.966;7.958;2023-03-20T11:22:08;97608.88;;;12.07;73.51
9281;BME280;4679;47.966;7.958;2023-03-20T11:24:21;97614.13;;;12.18;73.29
9281;BME280;4679;47.966;7.958;2023-03-20T11:26:33;97613.13;;;12.24;72.87
9281;BME280;4679;47.966;7.958;2023-03-20T11:28:38;97609.53;;;12.30;72.94
9281;BME280;4679;47.966;7.958;2023-03-20T11:30:40;97613.06;;;12.36;72.95
9281;BME280;4679;47.966;7.958;2023-03-20T11:32:45;97612.31;;;12.41;72.41
9281;BME280;4679;47.966;7.958;2023-03-20T11:34:49;97614.28;;;12.45;72.48
9281;BME280;4679;47.966;7.958;2023-03-20T11:36:56;97609.66;;;12.57;72.43
9281;BME280;4679;47.966;7.958;2023-03-20T11:39:04;97606.59;;;12.65;71.85
9281;BME280;4679;47.966;7.958;2023-03-20T11:41:16;97603.72;;;12.89;70.82
9281;BME280;4679;47.966;7.958;2023-03-20T11:43:20;97598.19;;;12.74;70.61
9281;BME280;4679;47.966;7.958;2023-03-20T11:45:22;97598.41;;;12.72;70.93
9281;BME280;4679;47.966;7.958;2023-03-20T11:47:27;97597.78;;;12.82;70.56
9281;BME280;4679;47.966;7.958;2023-03-20T11:49:30;97597.50;;;12.83;70.12
9281;BME280;4679;47.966;7.958;2023-03-20T11:51:34;97597.84;;;12.70;70.13
9281;BME280;4679;47.966;7.958;2023-03-20T11:53:38;97604.81;;;12.54;70.52
9281;BME280;4679;47.966;7.958;2023-03-20T11:55:42;97598.72;;;12.37;70.61
9281;BME280;4679;47.966;7.958;2023-03-20T11:57:48;97596.69;;;12.27;70.20
9281;BME280;4679;47.966;7.958;2023-03-20T11:59:50;97599.34;;;12.11;70.85
9281;BME280;4679;47.966;7.958;2023-03-20T12:01:54;97594.13;;;12.16;70.32
9281;BME280;4679;47.966;7.958;2023-03-20T12:04:01;97598.53;;;12.10;70.34
9281;BME280;4679;47.966;7.958;2023-03-20T12:06:06;97591.47;;;12.16;70.00
9281;BME280;4679;47.966;7.958;2023-03-20T12:08:13;97603.72;;;12.17;69.95
9281;BME280;4679;47.966;7.958;2023-03-20T12:10:17;97592.66;;;12.08;69.72
9281;BME280;4679;47.966;7.958;2023-03-20T12:12:26;97594.22;;;12.21;69.74
9281;BME280;4679;47.966;7.958;2023-03-20T12:14:37;97590.25;;;12.23;69.43
9281;BME280;4679;47.966;7.958;2023-03-20T12:16:41;97592.97;;;12.45;69.68
9281;BME280;4679;47.966;7.958;2023-03-20T12:18:44;97586.50;;;12.58;68.75
9281;BME280;4679;47.966;7.958;2023-03-20T12:20:56;97588.94;;;12.59;68.13
9281;BME280;4679;47.966;7.958;2023-03-20T12:23:05;97575.63;;;12.43;69.06
9281;BME280;4679;47.966;7.958;2023-03-20T12:25:19;97574.91;;;12.47;68.95
9281;BME280;4679;47.966;7.958;2023-03-20T12:27:25;97574.09;;;12.63;68.63
9281;BME280;4679;47.966;7.958;2023-03-20T12:29:31;97570.25;;;12.76;68.07
9281;BME280;4679;47.966;7.958;2023-03-20T12:31:41;97567.16;;;12.62;68.39
9281;BME280;4679;47.966;7.958;2023-03-20T12:33:49;97575.88;;;12.41;68.43
9281;BME280;4679;47.966;7.958;2023-03-20T12:35:53;97563.00;;;12.33;68.08
9281;BME280;4679;47.966;7.958;2023-03-20T12:37:57;97565.19;;;12.36;67.46
9281;BME280;4679;47.966;7.958;2023-03-20T12:40:00;97568.72;;;12.25;68.29
9281;BME280;4679;47.966;7.958;2023-03-20T12:42:14;97565.56;;;12.28;67.34
9281;BME280;4679;47.966;7.958;2023-03-20T12:44:33;97558.88;;;12.25;67.92
9281;BME280;4679;47.966;7.958;2023-03-20T12:46:42;97545.22;;;12.39;66.70
9281;BME280;4679;47.966;7.958;2023-03-20T12:48:54;97556.03;;;12.49;66.52
9281;BME280;4679;47.966;7.958;2023-03-20T12:51:06;97549.72;;;12.55;66.29
9281;BME280;4679;47.966;7.958;2023-03-20T12:53:21;97545.28;;;12.60;65.95
9281;BME280;4679;47.966;7.958;2023-03-20T12:55:40;97543.31;;;12.51;66.24
9281;BME280;4679;47.966;7.958;2023-03-20T12:57:56;97536.75;;;12.42;66.03
9281;BME280;4679;47.966;7.958;2023-03-20T13:00:18;97532.69;;;12.34;66.28
9281;BME280;4679;47.966;7.958;2023-03-20T13:02:33;97537.97;;;12.51;65.39
9281;BME280;4679;47.966;7.958;2023-03-20T13:04:53;97530.78;;;12.51;65.33
9281;BME280;4679;47.966;7.958;2023-03-20T13:06:59;97529.44;;;12.71;64.81
9281;BME280;4679;47.966;7.958;2023-03-20T13:09:22;97534.22;;;12.90;64.68
9281;BME280;4679;47.966;7.958;2023-03-20T13:11:30;97529.69;;;12.91;64.50
9281;BME280;4679;47.966;7.958;2023-03-20T13:13:41;97526.84;;;12.76;64.85
9281;BME280;4679;47.966;7.958;2023-03-20T13:15:53;97521.28;;;12.77;64.90
9281;BME280;4679;47.966;7.958;2023-03-20T13:18:03;97510.19;;;13.07;64.29
9281;BME280;4679;47.966;7.958;2023-03-20T13:20:18;97517.00;;;13.20;63.87
9281;BME280;4679;47.966;7.958;2023-03-20T13:22:26;97509.19;;;13.13;63.80
9281;BME280;4679;47.966;7.958;2023-03-20T13:24:35;97497.44;;;13.14;63.80
9281;BME280;4679;47.966;7.958;2023-03-20T13:26:44;97498.91;;;13.22;63.62
9281;BME280;4679;47.966;7.958;2023-03-20T13:28:55;97493.44;;;13.33;63.33
9281;BME280;4679;47.966;7.958;2023-03-20T13:31:02;97498.75;;;13.33;63.36
9281;BME280;4679;47.966;7.958;2023-03-20T13:33:30;97492.34;;;13.61;62.65
9281;BME280;4679;47.966;7.958;2023-03-20T13:35:44;97487.00;;;13.56;62.19
9281;BME280;4679;47.966;7.958;2023-03-20T13:37:51;97486.78;;;13.36;62.71
9281;BME280;4679;47.966;7.958;2023-03-20T13:40:01;97494.06;;;13.46;62.30
9281;BME280;4679;47.966;7.958;2023-03-20T13:42:10;97485.78;;;13.42;61.96
9281;BME280;4679;47.966;7.958;2023-03-20T13:44:17;97488.09;;;13.33;62.52
9281;BME280;4679;47.966;7.958;2023-03-20T13:46:22;97490.66;;;13.23;62.15
9281;BME280;4679;47.966;7.958;2023-03-20T13:48:28;97496.44;;;13.15;62.70
9281;BME280;4679;47.966;7.958;2023-03-20T13:50:38;97495.50;;;13.04;62.37
9281;BME280;4679;47.966;7.958;2023-03-20T13:52:47;97503.41;;;12.99;62.30
9281;BME280;4679;47.966;7.958;2023-03-20T13:54:58;97492.97;;;12.93;62.13
9281;BME280;4679;47.966;7.958;2023-03-20T13:57:11;97496.69;;;12.92;62.36
9281;BME280;4679;47.966;7.958;2023-03-20T13:59:34;97493.84;;;12.98;62.39
9281;BME280;4679;47.966;7.958;2023-03-20T14:01:45;97495.06;;;13.13;61.98
9281;BME280;4679;47.966;7.958;2023-03-20T14:03:52;97487.88;;;13.13;61.62
9281;BME280;4679;47.966;7.958;2023-03-20T14:05:54;97488.00;;;13.23;61.16
9281;BME280;4679;47.966;7.958;2023-03-20T14:07:56;97476.31;;;13.29;60.88
9281;BME280;4679;47.966;7.958;2023-03-20T14:10:37;97483.81;;;13.32;60.94
9281;BME280;4679;47.966;7.958;2023-03-20T14:12:39;97476.88;;;13.31;60.55
9281;BME280;4679;47.966;7.958;2023-03-20T14:14:45;97480.00;;;13.23;60.83
9281;BME280;4679;47.966;7.958;2023-03-20T14:16:59;97471.53;;;13.26;60.55
9281;BME280;4679;47.966;7.958;2023-03-20T14:19:06;97476.84;;;13.26;60.58
9281;BME280;4679;47.966;7.958;2023-03-20T14:21:11;97475.44;;;13.19;60.50
9281;BME280;4679;47.966;7.958;2023-03-20T14:23:16;97472.13;;;13.12;60.80
9281;BME280;4679;47.966;7.958;2023-03-20T14:25:20;97483.03;;;13.10;60.29
9281;BME280;4679;47.966;7.958;2023-03-20T14:27:25;97477.97;;;13.09;60.40
9281;BME280;4679;47.966;7.958;2023-03-20T14:29:33;97473.38;;;13.04;60.09
9281;BME280;4679;47.966;7.958;2023-03-20T14:31:36;97479.50;;;13.04;60.07
9281;BME280;4679;47.966;7.958;2023-03-20T14:33:42;97479.81;;;13.08;59.90
9281;BME280;4679;47.966;7.958;2023-03-20T14:35:48;97478.09;;;13.19;59.80
9281;BME280;4679;47.966;7.958;2023-03-20T14:38:10;97466.78;;;13.33;59.61
9281;BME280;4679;47.966;7.958;2023-03-20T14:40:16;97472.16;;;13.38;59.33
9281;BME280;4679;47.966;7.958;2023-03-20T14:42:28;97468.31;;;13.29;59.41
9281;BME280;4679;47.966;7.958;2023-03-20T14:44:47;97477.66;;;13.27;59.58
9281;BME280;4679;47.966;7.958;2023-03-20T14:46:56;97470.91;;;13.19;59.32
9281;BME280;4679;47.966;7.958;2023-03-20T14:49:12;97465.88;;;13.23;59.14
9281;BME280;4679;47.966;7.958;2023-03-20T14:51:26;97472.66;;;13.35;58.80
9281;BME280;4679;47.966;7.958;2023-03-20T14:53:31;97463.34;;;13.38;58.77
9281;BME280;4679;47.966;7.958;2023-03-20T14:55:46;97465.22;;;13.37;58.67
9281;BME280;4679;47.966;7.958;2023-03-20T14:57:50;97465.56;;;13.46;58.55
9281;BME280;4679;47.966;7.958;2023-03-20T14:59:53;97462.69;;;13.53;58.69
9281;BME280;4679;47.966;7.958;2023-03-20T15:01:58;97460.59;;;13.55;58.23
9281;BME280;4679;47.966;7.958;2023-03-20T15:04:04;97470.31;;;13.71;58.26
9281;BME280;4679;47.966;7.958;2023-03-20T15:06:08;97458.66;;;13.82;58.01
9281;BME280;4679;47.966;7.958;2023-03-20T15:08:14;97458.44;;;13.89;57.59
9281;BME280;4679;47.966;7.958;2023-03-20T15:10:18;97463.50;;;13.90;57.58
9281;BME280;4679;47.966;7.958;2023-03-20T15:12:24;97457.00;;;13.76;57.88
9281;BME280;4679;47.966;7.958;2023-03-20T15:14:28;97457.00;;;13.76;58.04
9281;BME280;4679;47.966;7.958;2023-03-20T15:16:34;97458.16;;;13.85;57.73
9281;BME280;4679;47.966;7.958;2023-03-20T15:18:39;97451.66;;;13.71;57.79
9281;BME280;4679;47.966;7.958;2023-03-20T15:20:43;97452.34;;;13.56;57.92
9281;BME280;4679;47.966;7.958;2023-03-20T15:22:48;97456.75;;;13.46;57.53
9281;BME280;4679;47.966;7.958;2023-03-20T15:24:52;97450.53;;;13.35;57.92
9281;BME280;4679;47.966;7.958;2023-03-20T15:26:57;97446.00;;;13.35;57.99
9281;BME280;4679;47.966;7.958;2023-03-20T15:29:01;97457.72;;;13.34;58.12
9281;BME280;4679;47.966;7.958;2023-03-20T15:31:04;97456.63;;;13.30;57.37
9281;BME280;4679;47.966;7.958;2023-03-20T15:33:14;97453.13;;;13.25;57.48
9281;BME280;4679;47.966;7.958;2023-03-20T15:35:20;97450.88;;;13.17;57.69
9281;BME280;4679;47.966;7.958;2023-03-20T15:37:23;97459.94;;;13.16;57.32
9281;BME280;4679;47.966;7.958;2023-03-20T15:39:27;97457.22;;;13.37;56.90
9281;BME280;4679;47.966;7.958;2023-03-20T15:41:30;97460.59;;;13.55;56.44
9281;BME280;4679;47.966;7.958;2023-03-20T15:43:34;97456.97;;;13.71;56.21
9281;BME280;4679;47.966;7.958;2023-03-20T15:45:39;97447.47;;;13.85;55.64
9281;BME280;4679;47.966;7.958;2023-03-20T15:47:41;97447.00;;;13.93;55.49
9281;BME280;4679;47.966;7.958;2023-03-20T15:49:49;97447.25;;;13.92;55.67
9281;BME280;4679;47.966;7.958;2023-03-20T15:51:55;97434.94;;;13.86;55.89
9281;BME280;4679;47.966;7.958;2023-03-20T15:53:58;97444.72;;;13.70;55.82
9281;BME280;4679;47.966;7.958;2023-03-20T15:56:03;97441.41;;;13.58;56.08
9281;BME280;4679;47.966;7.958;2023-03-20T15:58:05;97443.41;;;13.46;56.09
9281;BME280;4679;47.966;7.958;2023-03-20T16:00:13;97439.63;;;13.36;56.24
9281;BME280;4679;47.966;7.958;2023-03-20T16:02:17;97438.31;;;13.39;56.24
9281;BME280;4679;47.966;7.958;2023-03-20T16:04:19;97441.31;;;13.48;55.91
9281;BME280;4679;47.966;7.958;2023-03-20T16:06:23;97435.09;;;13.37;55.98
9281;BME280;4679;47.966;7.958;2023-03-20T16:08:28;97436.97;;;13.36;55.92
9281;BME280;4679;47.966;7.958;2023-03-20T16:10:33;97431.69;;;13.47;55.98
9281;BME280;4679;47.966;7.958;2023-03-20T16:12:35;97430.09;;;13.46;55.98
9281;BME280;4679;47.966;7.958;2023-03-20T16:14:37;97429.94;;;13.25;56.00
9281;BME280;4679;47.966;7.958;2023-03-20T16:16:39;97427.47;;;13.19;55.98
9281;BME280;4679;47.966;7.958;2023-03-20T16:18:41;97430.75;;;13.26;56.02
9281;BME280;4679;47.966;7.958;2023-03-20T16:20:48;97429.44;;;13.28;56.18
9281;BME280;4679;47.966;7.958;2023-03-20T16:22:54;97424.25;;;13.17;56.21
9281;BME280;4679;47.966;7.958;2023-03-20T16:25:00;97413.09;;;13.20;56.03
9281;BME280;4679;47.966;7.958;2023-03-20T16:27:05;97418.09;;;13.16;56.29
9281;BME280;4679;47.966;7.958;2023-03-20T16:29:10;97409.38;;;13.21;55.96
9281;BME280;4679;47.966;7.958;2023-03-20T16:31:16;97423.25;;;13.23;56.28
9281;BME280;4679;47.966;7.958;2023-03-20T16:33:18;97414.50;;;13.27;55.98
9281;BME280;4679;47.966;7.958;2023-03-20T16:35:21;97417.31;;;13.16;55.66
9281;BME280;4679;47.966;7.958;2023-03-20T16:37:28;97409.69;;;13.02;55.94
9281;BME280;4679;47.966;7.958;2023-03-20T16:39:30;97416.31;;;13.00;56.26
9281;BME280;4679;47.966;7.958;2023-03-20T16:41:35;97415.66;;;12.88;56.47
9281;BME280;4679;47.966;7.958;2023-03-20T16:43:37;97412.91;;;12.78;56.36
9281;BME280;4679;47.966;7.958;2023-03-20T16:45:40;97409.13;;;12.74;56.23
9281;BME280;4679;47.966;7.958;2023-03-20T16:47:42;97406.16;;;12.70;56.75
9281;BME280;4679;47.966;7.958;2023-03-20T16:52:15;97413.28;;;12.64;56.72
9281;BME280;4679;47.966;7.958;2023-03-20T16:54:18;97410.63;;;12.64;56.23
9281;BME280;4679;47.966;7.958;2023-03-20T16:56:24;97412.75;;;12.62;57.03
9281;BME280;4679;47.966;7.958;2023-03-20T16:58:28;97417.25;;;12.62;56.91
9281;BME280;4679;47.966;7.958;2023-03-20T17:00:41;97417.44;;;12.55;56.85
9281;BME280;4679;47.966;7.958;2023-03-20T17:02:49;97418.72;;;12.53;56.93
9281;BME280;4679;47.966;7.958;2023-03-20T17:04:54;97421.84;;;12.45;56.88
9281;BME280;4679;47.966;7.958;2023-03-20T17:06:58;97423.94;;;12.43;57.44
9281;BME280;4679;47.966;7.958;2023-03-20T17:09:09;97421.72;;;12.35;57.29
9281;BME280;4679;47.966;7.958;2023-03-20T17:11:22;97419.78;;;12.30;57.31
9281;BME280;4679;47.966;7.958;2023-03-20T17:13:28;97411.97;;;12.23;57.84
9281;BME280;4679;47.966;7.958;2023-03-20T17:15:30;97418.63;;;12.21;58.10
9281;BME280;4679;47.966;7.958;2023-03-20T17:17:32;97418.31;;;12.17;57.99
9281;BME280;4679;47.966;7.958;2023-03-20T17:19:34;97420.63;;;12.14;58.43
9281;BME280;4679;47.966;7.958;2023-03-20T17:21:36;97423.47;;;12.07;57.86
9281;BME280;4679;47.966;7.958;2023-03-20T17:23:38;97421.31;;;12.04;58.27
9281;BME280;4679;47.966;7.958;2023-03-20T17:25:39;97426.06;;;12.02;58.43
9281;BME280;4679;47.966;7.958;2023-03-20T17:27:41;97415.34;;;11.97;58.27
9281;BME280;4679;47.966;7.958;2023-03-20T17:29:46;97413.38;;;11.87;58.48
9281;BME280;4679;47.966;7.958;2023-03-20T17:31:48;97411.41;;;11.66;59.44
9281;BME280;4679;47.966;7.958;2023-03-20T17:33:51;97421.25;;;11.49;58.94
9281;BME280;4679;47.966;7.958;2023-03-20T17:35:53;97415.78;;;11.39;59.54
9281;BME280;4679;47.966;7.958;2023-03-20T17:37:56;97423.59;;;11.28;59.25
9281;BME280;4679;47.966;7.958;2023-03-20T17:39:58;97424.66;;;11.16;60.34
9281;BME280;4679;47.966;7.958;2023-03-20T17:42:00;97426.69;;;11.09;60.30
9281;BME280;4679;47.966;7.958;2023-03-20T17:44:03;97424.50;;;11.06;60.19
9281;BME280;4679;47.966;7.958;2023-03-20T17:46:08;97428.91;;;11.00;60.61
9281;BME280;4679;47.966;7.958;2023-03-20T17:48:13;97422.25;;;10.98;60.57
9281;BME280;4679;47.966;7.958;2023-03-20T17:50:17;97419.25;;;10.94;60.63
9281;BME280;4679;47.966;7.958;2023-03-20T17:52:21;97422.97;;;10.93;60.87
9281;BME280;4679;47.966;7.958;2023-03-20T17:54:23;97415.81;;;10.93;60.43
9281;BME280;4679;47.966;7.958;2023-03-20T17:56:26;97427.22;;;10.94;60.98
9281;BME280;4679;47.966;7.958;2023-03-20T17:58:31;97428.03;;;10.95;61.29
9281;BME280;4679;47.966;7.958;2023-03-20T18:00:33;97424.00;;;10.92;61.05
9281;BME280;4679;47.966;7.958;2023-03-20T18:02:36;97415.69;;;10.88;61.32
9281;BME280;4679;47.966;7.958;2023-03-20T18:04:38;97419.63;;;10.86;61.69
9281;BME280;4679;47.966;7.958;2023-03-20T18:06:40;97436.53;;;10.80;61.33
9281;BME280;4679;47.966;7.958;2023-03-20T18:08:42;97437.78;;;10.77;62.02
9281;BME280;4679;47.966;7.958;2023-03-20T18:10:44;97447.59;;;10.77;61.84
9281;BME280;4679;47.966;7.958;2023-03-20T18:12:46;97450.72;;;10.74;62.35
9281;BME280;4679;47.966;7.958;2023-03-20T18:14:47;97446.47;;;10.73;62.16
9281;BME280;4679;47.966;7.958;2023-03-20T18:16:49;97451.19;;;10.71;62.57
9281;BME280;4679;47.966;7.958;2023-03-20T18:18:53;97446.16;;;10.69;62.04
9281;BME280;4679;47.966;7.958;2023-03-20T18:20:54;97448.69;;;10.64;62.25
9281;BME280;4679;47.966;7.958;2023-03-20T18:22:56;97443.63;;;10.63;62.57
9281;BME280;4679;47.966;7.958;2023-03-20T18:24:58;97449.72;;;10.63;63.20
9281;BME280;4679;47.966;7.958;2023-03-20T18:27:00;97451.00;;;10.61;62.98
9281;BME280;4679;47.966;7.958;2023-03-20T18:29:02;97459.56;;;10.51;63.36
9281;BME280;4679;47.966;7.958;2023-03-20T18:31:04;97461.31;;;10.45;63.57